createdAt,value
2024-04-19T00:00:23.200Z,8.60
2024-04-19T00:03:26.966Z,7.30
2024-04-19T00:06:30.750Z,8.73
2024-04-19T00:09:34.331Z,8.63
2024-04-19T00:12:37.881Z,8.97
2024-04-19T00:15:44.018Z,9.07
2024-04-19T00:18:48.054Z,8.00
2024-04-19T00:21:51.650Z,9.18
2024-04-19T00:24:55.175Z,7.05
2024-04-19T00:27:58.667Z,7.43
2024-04-19T00:31:02.959Z,7.97
2024-04-19T00:34:06.719Z,11.07
2024-04-19T00:37:10.276Z,11.13
2024-04-19T00:40:13.801Z,7.88
2024-04-19T00:43:17.352Z,9.10
2024-04-19T00:46:20.924Z,9.17
2024-04-19T00:49:24.504Z,7.53
2024-04-19T00:52:28.342Z,7.72
2024-04-19T00:55:32.768Z,7.47
2024-04-19T00:58:36.595Z,7.97
2024-04-19T01:01:40.590Z,8.93
2024-04-19T01:04:44.286Z,7.38
2024-04-19T01:07:49.048Z,8.50
2024-04-19T01:10:53.211Z,7.93
2024-04-19T01:13:57.182Z,8.23
2024-04-19T01:17:00.673Z,7.73
2024-04-19T01:20:04.427Z,7.90
2024-04-19T01:23:15.809Z,8.25
2024-04-19T01:26:19.310Z,7.50
2024-04-19T01:29:22.832Z,9.93
2024-04-19T01:32:26.353Z,7.57
2024-04-19T01:35:29.902Z,7.38
2024-04-19T01:38:33.413Z,11.90
2024-04-19T01:41:37.198Z,9.63
2024-04-19T01:44:40.706Z,7.93
2024-04-19T01:47:44.577Z,8.30
2024-04-19T01:50:48.127Z,9.43
2024-04-19T01:53:51.624Z,8.50
2024-04-19T01:57:01.221Z,9.75
2024-04-19T02:00:05.756Z,9.37
2024-04-19T02:03:15.046Z,8.13
2024-04-19T02:06:18.594Z,8.38
2024-04-19T02:09:22.183Z,9.82
2024-04-19T02:12:25.750Z,10.27
2024-04-19T02:15:29.363Z,8.77
2024-04-19T02:18:33.081Z,8.50
2024-04-19T02:21:36.708Z,9.70
2024-04-19T02:24:40.330Z,9.77
2024-04-19T02:28:04.105Z,8.93
2024-04-19T02:31:07.645Z,8.33
2024-04-19T02:34:11.251Z,8.17
2024-04-19T02:37:14.789Z,11.55
2024-04-19T02:40:18.297Z,11.23
2024-04-19T02:43:21.809Z,9.82
2024-04-19T02:46:37.706Z,9.77
2024-04-19T02:49:41.251Z,10.32
2024-04-19T02:52:44.834Z,10.68
2024-04-19T02:55:49.265Z,10.80
2024-04-19T02:58:54.530Z,9.70
2024-04-19T03:01:58.069Z,10.67
2024-04-19T03:05:09.374Z,8.23
2024-04-19T03:08:13.169Z,10.30
2024-04-19T03:11:16.795Z,10.82
2024-04-19T03:14:20.411Z,12.48
2024-04-19T03:17:24.033Z,12.90
2024-04-19T03:20:27.675Z,11.53
2024-04-19T03:23:31.371Z,11.43
2024-04-19T03:26:37.627Z,12.88
2024-04-19T03:29:41.299Z,9.25
2024-04-19T03:32:44.848Z,10.07
2024-04-19T03:35:48.412Z,11.27
2024-04-19T03:38:52.206Z,11.18
2024-04-19T03:41:57.854Z,9.25
2024-04-19T03:45:19.920Z,11.00
2024-04-19T03:48:23.549Z,9.67
2024-04-19T03:51:27.088Z,8.90
2024-04-19T03:54:30.699Z,11.80
2024-04-19T03:57:34.330Z,10.93
2024-04-19T04:00:40.664Z,10.63
2024-04-19T04:03:44.522Z,12.43
2024-04-19T04:06:48.169Z,14.83
2024-04-19T04:09:51.776Z,12.65
2024-04-19T04:12:57.687Z,14.82
2024-04-19T04:16:01.664Z,10.38
2024-04-19T04:19:05.707Z,10.83
2024-04-19T04:22:09.281Z,12.47
2024-04-19T04:25:12.796Z,11.13
2024-04-19T04:28:16.364Z,9.95
2024-04-19T04:31:19.943Z,11.20
2024-04-19T04:34:23.902Z,10.93
2024-04-19T04:37:27.510Z,9.83
2024-04-19T04:40:33.355Z,13.27
2024-04-19T04:43:36.858Z,11.75
2024-04-19T04:46:40.716Z,9.93
2024-04-19T04:49:44.323Z,12.17
2024-04-19T04:52:48.122Z,10.00
2024-04-19T04:55:51.710Z,15.70
2024-04-19T04:58:55.210Z,10.38
2024-04-19T05:01:58.760Z,10.55
2024-04-19T05:05:03.473Z,10.03
2024-04-19T05:08:07.425Z,9.00
2024-04-19T05:11:11.029Z,10.90
2024-04-19T05:14:14.572Z,11.27
2024-04-19T05:17:18.169Z,11.75
2024-04-19T05:20:22.677Z,10.20
2024-04-19T05:23:26.321Z,10.17
2024-04-19T05:26:29.904Z,8.80
2024-04-19T05:29:33.407Z,8.15
2024-04-19T05:32:36.954Z,10.13
2024-04-19T05:35:40.612Z,8.50
2024-04-19T05:38:44.297Z,10.43
2024-04-19T05:41:47.861Z,8.48
2024-04-19T05:44:51.489Z,10.38
2024-04-19T05:47:55.199Z,7.20
2024-04-19T05:50:58.829Z,9.67
2024-04-19T05:54:02.496Z,11.50
2024-04-19T05:57:06.172Z,8.18
2024-04-19T06:00:10.071Z,8.32
2024-04-19T06:03:16.921Z,10.45
2024-04-19T06:06:21.298Z,8.57
2024-04-19T06:09:25.274Z,8.23
2024-04-19T06:12:28.882Z,9.75
2024-04-19T06:15:32.534Z,7.90
2024-04-19T06:18:36.319Z,9.13
2024-04-19T06:21:39.907Z,8.60
2024-04-19T06:24:43.547Z,7.73
2024-04-19T06:27:47.232Z,11.30
2024-04-19T06:30:50.964Z,9.60
2024-04-19T06:33:55.239Z,10.82
2024-04-19T06:36:58.915Z,7.70
2024-04-19T06:40:07.328Z,10.43
2024-04-19T06:43:11.662Z,8.10
2024-04-19T06:46:15.315Z,8.75
2024-04-19T06:49:19.189Z,8.40
2024-04-19T06:52:22.860Z,9.63
2024-04-19T06:55:26.659Z,8.53
2024-04-19T06:58:30.565Z,6.88
2024-04-19T07:01:34.857Z,7.65
2024-04-19T07:04:38.971Z,8.32
2024-04-19T07:07:42.714Z,8.00
2024-04-19T07:10:46.350Z,6.90
2024-04-19T07:13:50.011Z,7.47
2024-04-19T07:16:53.745Z,7.22
2024-04-19T07:19:59.121Z,7.03
2024-04-19T07:23:02.803Z,9.07
2024-04-19T07:26:06.476Z,9.17
2024-04-19T07:29:10.449Z,10.82
2024-04-19T07:32:14.087Z,9.63
2024-04-19T07:35:17.767Z,10.90
2024-04-19T07:38:21.385Z,9.33
2024-04-19T07:41:25.472Z,8.33
2024-04-19T07:44:29.050Z,8.32
2024-04-19T07:47:32.660Z,6.80
2024-04-19T07:50:36.370Z,7.22
2024-04-19T07:53:40.419Z,7.77
2024-04-19T07:56:47.686Z,7.97
2024-04-19T07:59:51.236Z,6.65
2024-04-19T08:02:55.348Z,8.20
2024-04-19T08:06:00.620Z,6.82
2024-04-19T08:09:05.227Z,7.03
2024-04-19T08:12:09.686Z,7.07
2024-04-19T08:15:13.531Z,8.13
2024-04-19T08:18:17.123Z,6.50
2024-04-19T08:21:20.749Z,7.10
2024-04-19T08:24:26.038Z,8.07
2024-04-19T08:27:29.796Z,9.37
2024-04-19T08:30:33.367Z,8.02
2024-04-19T08:33:37.098Z,6.55
2024-04-19T08:36:40.657Z,6.28
2024-04-19T08:39:46.688Z,6.57
2024-04-19T08:42:52.727Z,6.97
2024-04-19T08:46:03.608Z,9.35
2024-04-19T08:49:10.211Z,8.50
2024-04-19T08:52:38.383Z,6.63
2024-04-19T08:55:42.670Z,5.97
2024-04-19T08:58:50.728Z,6.80
2024-04-19T09:01:55.042Z,6.63
2024-04-19T09:05:00.769Z,7.47
2024-04-19T09:08:06.412Z,6.93
2024-04-19T09:11:17.041Z,6.67
2024-04-19T09:14:20.638Z,8.27
2024-04-19T09:17:27.079Z,7.15
2024-04-19T09:20:31.355Z,6.57
2024-04-19T09:23:35.798Z,6.57
2024-04-19T09:26:39.495Z,7.03
2024-04-19T09:29:43.708Z,9.43
2024-04-19T09:32:48.736Z,9.90
2024-04-19T09:35:58.733Z,6.40
2024-04-19T09:39:04.266Z,6.75
2024-04-19T09:42:09.676Z,5.90
2024-04-19T09:45:14.662Z,6.57
2024-04-19T09:48:20.760Z,7.10
2024-04-19T09:51:35.903Z,6.18
2024-04-19T09:54:41.024Z,6.68
2024-04-19T09:57:48.132Z,7.10
2024-04-19T10:00:53.550Z,6.77
2024-04-19T10:03:57.531Z,6.18
2024-04-19T10:07:03.109Z,7.95
2024-04-19T10:10:07.228Z,8.60
2024-04-19T10:13:12.663Z,6.93
2024-04-19T10:16:17.181Z,7.23
2024-04-19T10:19:21.004Z,6.07
2024-04-19T10:22:25.376Z,8.20
2024-04-19T10:25:31.378Z,8.80
2024-04-19T10:28:35.767Z,7.00
2024-04-19T10:31:39.405Z,7.03
2024-04-19T10:34:43.450Z,7.25
2024-04-19T10:37:47.218Z,6.95
2024-04-19T10:40:50.818Z,6.57
2024-04-19T10:43:55.155Z,7.10
2024-04-19T10:46:59.101Z,6.50
2024-04-19T10:50:03.601Z,6.15
2024-04-19T10:53:07.864Z,6.53
2024-04-19T10:56:11.568Z,6.90
2024-04-19T10:59:15.283Z,5.50
2024-04-19T11:02:19.787Z,7.00
2024-04-19T11:05:24.892Z,5.53
2024-04-19T11:08:28.703Z,7.80
2024-04-19T11:11:39.599Z,6.50
2024-04-19T11:14:43.421Z,5.80
2024-04-19T11:17:49.451Z,5.30
2024-04-19T11:21:00.602Z,7.03
2024-04-19T11:24:08.982Z,6.13
2024-04-19T11:27:15.668Z,5.43
2024-04-19T11:30:19.426Z,5.90
2024-04-19T11:33:23.213Z,9.40
2024-04-19T11:36:27.633Z,6.10
2024-04-19T11:39:35.666Z,11.15
2024-04-19T11:42:39.849Z,7.45
2024-04-19T11:45:47.487Z,8.30
2024-04-19T11:48:51.939Z,9.20
2024-04-19T11:51:55.958Z,7.60
2024-04-19T11:55:00.467Z,10.25
2024-04-19T11:58:04.777Z,7.57
2024-04-19T12:01:09.209Z,7.50
2024-04-19T12:04:13.571Z,15.40
2024-04-19T12:07:17.429Z,5.20
2024-04-19T12:10:23.289Z,11.93
2024-04-19T12:14:13.299Z,5.75
2024-04-19T12:16:57.849Z,8.37
2024-04-19T12:20:15.500Z,5.50
2024-04-19T12:23:24.371Z,4.28
2024-04-19T12:26:28.396Z,4.78
2024-04-19T12:29:38.525Z,5.30
2024-04-19T12:32:42.770Z,6.07
2024-04-19T12:35:46.757Z,6.37
2024-04-19T12:38:51.008Z,5.75
2024-04-19T12:41:55.448Z,6.10
2024-04-19T12:44:59.146Z,4.68
2024-04-19T12:48:09.962Z,3.87
2024-04-19T12:51:13.647Z,4.43
2024-04-19T12:54:19.823Z,4.25
2024-04-19T12:57:24.863Z,3.92
2024-04-19T13:00:32.223Z,5.20
2024-04-19T13:03:36.058Z,6.30
2024-04-19T13:06:40.255Z,4.37
2024-04-19T13:09:43.973Z,3.95
2024-04-19T13:12:47.571Z,6.15
2024-04-19T13:15:51.345Z,4.72
2024-04-19T13:18:55.595Z,8.13
2024-04-19T13:21:59.363Z,4.13
2024-04-19T13:25:03.009Z,5.00
2024-04-19T13:28:06.823Z,5.93
2024-04-19T13:31:10.472Z,5.13
2024-04-19T13:34:14.024Z,7.10
2024-04-19T13:37:19.518Z,3.87
2024-04-19T13:40:23.095Z,4.82
2024-04-19T13:43:28.604Z,4.80
2024-04-19T13:46:32.297Z,4.00
2024-04-19T13:49:35.990Z,4.23
2024-04-19T13:52:39.548Z,6.13
2024-04-19T13:55:43.208Z,6.35
2024-04-19T13:58:46.951Z,4.38
2024-04-19T14:01:51.012Z,4.82
2024-04-19T14:04:54.811Z,5.20
2024-04-19T14:07:58.475Z,3.90
2024-04-19T14:11:03.182Z,5.18
2024-04-19T14:14:06.748Z,5.78
2024-04-19T14:17:10.306Z,4.45
2024-04-19T14:20:13.888Z,6.83
2024-04-19T14:23:17.993Z,3.67
2024-04-19T14:26:22.725Z,3.97
2024-04-19T14:29:26.278Z,3.35
2024-04-19T14:32:29.886Z,4.15
2024-04-19T14:35:36.740Z,4.37
2024-04-19T14:38:40.420Z,5.97
2024-04-19T14:41:46.311Z,4.40
2024-04-19T14:44:51.362Z,5.35
2024-04-19T14:47:55.033Z,3.75
2024-04-19T14:50:58.723Z,3.37
2024-04-19T14:54:02.554Z,3.83
2024-04-19T14:57:06.605Z,4.32
2024-04-19T15:00:10.467Z,4.18
2024-04-19T15:03:14.035Z,5.78
2024-04-19T15:06:17.829Z,13.40
2024-04-19T15:09:21.566Z,6.20
2024-04-19T15:12:25.223Z,5.38
2024-04-19T15:15:29.060Z,5.88
2024-04-19T15:18:32.803Z,3.65
2024-04-19T15:21:36.503Z,6.20
2024-04-19T15:24:40.037Z,5.83
2024-04-19T15:27:43.737Z,8.35
2024-04-19T15:30:47.428Z,11.25
2024-04-19T15:33:51.154Z,14.68
2024-04-19T15:36:54.768Z,8.43
2024-04-19T15:39:58.536Z,6.23
2024-04-19T15:43:02.289Z,9.10
2024-04-19T15:46:06.206Z,12.05
2024-04-19T15:49:10.088Z,14.98
2024-04-19T15:52:13.931Z,14.13
2024-04-19T15:55:20.583Z,9.47
2024-04-19T15:58:24.342Z,8.25
2024-04-19T16:01:28.128Z,11.23
2024-04-19T16:04:31.854Z,11.55
2024-04-19T16:07:35.490Z,7.53
2024-04-19T16:10:39.621Z,12.40
2024-04-19T16:13:43.163Z,11.73
2024-04-19T16:16:46.813Z,7.40
2024-04-19T16:19:50.498Z,6.97
2024-04-19T16:22:54.068Z,9.97
2024-04-19T16:25:58.149Z,19.03
2024-04-19T16:29:02.382Z,18.08
2024-04-19T16:32:06.204Z,9.55
2024-04-19T16:35:11.379Z,13.82
2024-04-19T16:38:15.061Z,10.80
2024-04-19T16:41:20.355Z,7.07
2024-04-19T16:44:24.272Z,8.60
2024-04-19T16:47:28.442Z,9.05
2024-04-19T16:50:32.026Z,6.38
2024-04-19T16:53:35.649Z,5.30
2024-04-19T16:56:43.228Z,5.07
2024-04-19T16:59:46.834Z,7.00
2024-04-19T17:02:50.390Z,6.55
2024-04-19T17:05:54.091Z,13.20
2024-04-19T17:08:57.615Z,26.83
2024-04-19T17:12:03.899Z,23.57
2024-04-19T17:15:07.656Z,19.77
2024-04-19T17:18:11.803Z,18.63
2024-04-19T17:21:15.390Z,20.30
2024-04-19T17:24:19.961Z,12.83
2024-04-19T17:27:23.604Z,9.30
2024-04-19T17:30:27.173Z,9.05
2024-04-19T17:33:30.986Z,9.60
2024-04-19T17:36:34.659Z,9.32
2024-04-19T17:39:38.358Z,6.60
2024-04-19T17:42:42.156Z,5.60
2024-04-19T17:45:46.395Z,8.48
2024-04-19T17:48:50.024Z,7.15
2024-04-19T17:51:56.027Z,7.63
2024-04-19T17:54:59.677Z,6.20
2024-04-19T17:58:03.472Z,7.83
2024-04-19T18:01:07.187Z,6.57
2024-04-19T18:04:11.029Z,6.50
2024-04-19T18:07:14.650Z,6.40
2024-04-19T18:10:22.681Z,7.70
2024-04-19T18:13:27.065Z,7.73
2024-04-19T18:16:30.569Z,9.25
2024-04-19T18:19:34.337Z,7.32
2024-04-19T18:22:40.382Z,7.18
2024-04-19T18:25:48.791Z,8.10
2024-04-19T18:28:52.304Z,9.80
2024-04-19T18:31:56.268Z,8.65
2024-04-19T18:35:02.758Z,7.50
2024-04-19T18:38:06.421Z,7.72
2024-04-19T18:41:10.172Z,7.50
2024-04-19T18:44:13.726Z,27.97
2024-04-19T18:47:19.859Z,20.45
2024-04-19T18:50:24.187Z,15.77
2024-04-19T18:53:28.984Z,15.65
2024-04-19T18:56:32.531Z,10.87
2024-04-19T18:59:56.091Z,8.77
2024-04-19T19:03:19.544Z,12.35
2024-04-19T19:06:43.019Z,8.55
2024-04-19T19:10:07.655Z,8.05
2024-04-19T19:13:11.135Z,10.23
2024-04-19T19:16:16.048Z,8.07
2024-04-19T19:19:19.530Z,7.88
2024-04-19T19:22:23.558Z,6.80
2024-04-19T19:25:27.329Z,7.30
2024-04-19T19:28:31.145Z,7.10
2024-04-19T19:31:34.951Z,7.10
2024-04-19T19:34:38.729Z,6.82
2024-04-19T19:37:42.586Z,8.48
2024-04-19T19:40:47.185Z,6.30
2024-04-19T19:43:50.692Z,6.40
2024-04-19T19:46:57.120Z,8.27
2024-04-19T19:50:04.472Z,7.65
2024-04-19T19:53:07.945Z,9.25
2024-04-19T19:56:14.346Z,9.10
2024-04-19T19:59:38.169Z,8.73
2024-04-19T20:03:00.044Z,9.23
2024-04-19T20:06:03.966Z,8.40
2024-04-19T20:09:07.794Z,7.93
2024-04-19T20:12:11.639Z,8.32
2024-04-19T20:15:15.422Z,7.93
2024-04-19T20:18:20.287Z,7.73
2024-04-19T20:21:23.945Z,8.10
2024-04-19T20:24:27.802Z,7.60
2024-04-19T20:27:31.383Z,7.75
2024-04-19T20:30:35.133Z,8.37
2024-04-19T20:33:39.228Z,7.80
2024-04-19T20:36:42.918Z,8.93
2024-04-19T20:39:46.475Z,10.80
2024-04-19T20:42:53.729Z,10.30
2024-04-19T20:46:02.888Z,8.17
2024-04-19T20:49:06.531Z,7.30
2024-04-19T20:52:11.281Z,8.45
2024-04-19T20:55:19.339Z,8.02
2024-04-19T20:58:22.897Z,8.57
2024-04-19T21:01:27.022Z,8.97
2024-04-19T21:04:30.666Z,9.70
2024-04-19T21:07:35.438Z,8.77
2024-04-19T21:10:40.347Z,9.73
2024-04-19T21:13:43.982Z,9.98
2024-04-19T21:16:50.103Z,10.77
2024-04-19T21:19:53.764Z,10.13
2024-04-19T21:22:57.313Z,9.93
2024-04-19T21:26:05.841Z,10.88
2024-04-19T21:29:10.068Z,9.40
2024-04-19T21:32:13.678Z,10.80
2024-04-19T21:35:17.287Z,9.60
2024-04-19T21:38:22.010Z,7.97
2024-04-19T21:41:25.515Z,9.15
2024-04-19T21:44:29.085Z,11.35
2024-04-19T21:47:32.736Z,9.87
2024-04-19T21:50:36.335Z,9.87
2024-04-19T21:53:40.397Z,8.73
2024-04-19T21:56:43.986Z,10.13
2024-04-19T21:59:47.453Z,10.90
2024-04-19T22:02:51.123Z,9.97
2024-04-19T22:05:54.696Z,10.07
2024-04-19T22:08:58.196Z,9.52
2024-04-19T22:12:02.355Z,9.85
2024-04-19T22:15:06.283Z,9.60
2024-04-19T22:18:09.863Z,9.30
2024-04-19T22:21:14.517Z,10.77
2024-04-19T22:24:18.384Z,9.98
2024-04-19T22:27:21.933Z,11.38
2024-04-19T22:30:25.527Z,9.07
2024-04-19T22:33:29.422Z,9.70
2024-04-19T22:36:33.034Z,9.87
2024-04-19T22:39:37.729Z,11.25
2024-04-19T22:42:41.520Z,11.05
2024-04-19T22:45:45.147Z,11.13
2024-04-19T22:48:48.702Z,9.83
2024-04-19T22:51:53.021Z,10.90
2024-04-19T22:54:56.623Z,10.20
2024-04-19T22:58:00.376Z,10.35
2024-04-19T23:01:06.738Z,10.35
2024-04-19T23:04:10.495Z,11.73
2024-04-19T23:07:14.153Z,11.57
2024-04-19T23:10:17.869Z,11.63
2024-04-19T23:13:21.363Z,8.73
2024-04-19T23:16:25.184Z,10.27
2024-04-19T23:19:28.763Z,10.10
2024-04-19T23:22:33.719Z,11.40
2024-04-19T23:25:37.280Z,16.40
2024-04-19T23:28:42.194Z,17.38
2024-04-19T23:31:45.823Z,10.73
2024-04-19T23:34:49.463Z,11.57
2024-04-19T23:37:53.017Z,15.82
2024-04-19T23:40:57.166Z,13.40
2024-04-19T23:44:00.788Z,12.95
2024-04-19T23:47:08.813Z,12.73
2024-04-19T23:50:12.462Z,10.63
2024-04-19T23:53:15.974Z,9.50
2024-04-19T23:56:19.625Z,11.02
2024-04-19T23:59:23.137Z,11.90
